createdAt,value
2022-11-15T00:01:28.266Z,11.00
2022-11-15T00:03:56.848Z,10.00
2022-11-15T00:06:25.545Z,12.00
2022-11-15T00:08:54.221Z,10.50
2022-11-15T00:11:23.012Z,10.00
2022-11-15T00:13:51.482Z,12.00
2022-11-15T00:16:19.756Z,10.50
2022-11-15T00:18:51.001Z,12.00
2022-11-15T00:21:19.692Z,12.00
2022-11-15T00:23:48.072Z,9.00
2022-11-15T00:26:17.074Z,10.00
2022-11-15T00:28:45.749Z,11.67
2022-11-15T00:31:15.566Z,9.67
2022-11-15T00:33:45.456Z,10.50
2022-11-15T00:36:14.472Z,12.00
2022-11-15T00:38:42.954Z,14.00
2022-11-15T00:41:11.459Z,11.00
2022-11-15T00:43:41.267Z,10.50
2022-11-15T00:46:10.944Z,11.50
2022-11-15T00:48:39.442Z,10.00
2022-11-15T00:51:07.922Z,11.67
2022-11-15T00:53:36.506Z,12.50
2022-11-15T00:56:04.988Z,11.50
2022-11-15T00:58:33.163Z,10.50
2022-11-15T01:01:09.352Z,8.00
2022-11-15T01:03:39.639Z,10.00
2022-11-15T01:06:09.355Z,13.00
2022-11-15T01:08:37.842Z,12.00
2022-11-15T01:11:09.913Z,9.00
2022-11-15T01:13:39.419Z,12.50
2022-11-15T01:16:13.842Z,10.50
2022-11-15T01:18:42.626Z,13.00
2022-11-15T01:21:12.845Z,11.00
2022-11-15T01:23:41.122Z,12.00
2022-11-15T01:26:12.342Z,16.50
2022-11-15T01:28:41.921Z,8.00
2022-11-15T01:31:19.172Z,13.00
2022-11-15T01:33:48.625Z,11.00
2022-11-15T01:36:19.689Z,13.00
2022-11-15T01:38:50.345Z,10.00
2022-11-15T01:41:21.475Z,8.50
2022-11-15T01:43:58.536Z,13.50
2022-11-15T01:46:36.885Z,13.00
2022-11-15T01:49:14.681Z,13.00
2022-11-15T01:51:42.856Z,11.00
2022-11-15T01:54:14.515Z,11.50
2022-11-15T01:56:47.353Z,11.50
2022-11-15T01:59:15.881Z,11.50
2022-11-15T02:01:44.465Z,12.50
2022-11-15T02:04:29.149Z,10.00
2022-11-15T02:06:57.432Z,10.50
2022-11-15T02:09:25.889Z,8.67
2022-11-15T02:11:55.187Z,12.00
2022-11-15T02:14:24.592Z,10.00
2022-11-15T02:17:02.085Z,7.00
2022-11-15T02:19:37.836Z,13.00
2022-11-15T02:22:12.157Z,9.00
2022-11-15T02:25:13.098Z,11.50
2022-11-15T02:27:41.479Z,9.00
2022-11-15T02:30:30.231Z,11.00
2022-11-15T02:33:01.585Z,12.50
2022-11-15T02:35:42.040Z,11.00
2022-11-15T02:38:26.296Z,11.00
2022-11-15T02:41:02.667Z,14.00
2022-11-15T02:43:59.609Z,11.50
2022-11-15T02:47:04.851Z,12.00
2022-11-15T02:49:36.175Z,9.50
2022-11-15T02:52:05.096Z,11.00
2022-11-15T02:54:35.007Z,10.00
2022-11-15T02:57:12.191Z,12.00
2022-11-15T02:59:52.150Z,10.00
2022-11-15T03:02:35.884Z,11.00
2022-11-15T03:05:21.465Z,10.00
2022-11-15T03:08:01.819Z,13.50
2022-11-15T03:10:49.260Z,12.00
2022-11-15T03:13:36.070Z,12.00
2022-11-15T03:16:14.796Z,12.00
2022-11-15T03:18:46.882Z,11.00
2022-11-15T03:21:15.852Z,14.50
2022-11-15T03:23:45.051Z,12.00
2022-11-15T03:26:15.784Z,14.00
2022-11-15T03:29:14.783Z,13.00
2022-11-15T03:31:51.216Z,9.50
2022-11-15T03:34:33.181Z,12.00
2022-11-15T03:37:02.143Z,13.33
2022-11-15T03:39:31.034Z,11.50
2022-11-15T03:42:05.658Z,12.00
2022-11-15T03:44:37.007Z,10.00
2022-11-15T03:47:11.736Z,11.00
2022-11-15T03:49:45.448Z,13.00
2022-11-15T03:52:13.941Z,13.00
2022-11-15T03:54:56.740Z,11.00
2022-11-15T03:57:25.327Z,11.50
2022-11-15T03:59:54.623Z,9.50
2022-11-15T04:02:23.105Z,14.50
2022-11-15T04:04:51.899Z,10.00
2022-11-15T04:07:20.752Z,11.00
2022-11-15T04:10:05.071Z,13.00
2022-11-15T04:12:44.887Z,9.33
2022-11-15T04:15:19.054Z,10.50
2022-11-15T04:17:52.855Z,14.50
2022-11-15T04:20:42.440Z,12.00
2022-11-15T04:23:39.025Z,14.00
2022-11-15T04:26:13.446Z,15.00
2022-11-15T04:29:02.005Z,13.00
2022-11-15T04:31:30.894Z,12.00
2022-11-15T04:33:59.682Z,12.00
2022-11-15T04:36:46.902Z,11.00
2022-11-15T04:39:15.597Z,14.00
2022-11-15T04:41:44.376Z,14.00
2022-11-15T04:44:13.061Z,11.00
2022-11-15T04:46:41.665Z,14.00
2022-11-15T04:49:10.332Z,11.00
2022-11-15T04:51:39.023Z,10.00
2022-11-15T04:54:08.028Z,14.00
2022-11-15T04:56:36.596Z,12.00
2022-11-15T04:59:05.180Z,13.50
2022-11-15T05:01:34.022Z,14.00
2022-11-15T05:04:21.202Z,16.50
2022-11-15T05:06:53.295Z,13.00
2022-11-15T05:09:22.454Z,13.00
2022-11-15T05:11:51.038Z,12.00
2022-11-15T05:14:19.832Z,11.00
2022-11-15T05:16:48.615Z,15.00
2022-11-15T05:19:17.202Z,14.50
2022-11-15T05:21:45.988Z,9.50
2022-11-15T05:24:14.675Z,13.00
2022-11-15T05:26:43.260Z,13.00
2022-11-15T05:29:12.664Z,12.00
2022-11-15T05:31:43.431Z,11.00
2022-11-15T05:34:12.083Z,9.00
2022-11-15T05:36:44.258Z,12.00
2022-11-15T05:39:13.142Z,9.00
2022-11-15T05:41:52.108Z,17.00
2022-11-15T05:44:23.525Z,10.50
2022-11-15T05:46:54.977Z,15.50
2022-11-15T05:49:26.702Z,12.00
2022-11-15T05:51:55.828Z,13.33
2022-11-15T05:54:24.837Z,14.00
2022-11-15T05:56:53.814Z,9.00
2022-11-15T05:59:22.504Z,15.00
2022-11-15T06:01:51.419Z,12.50
2022-11-15T06:04:19.981Z,14.00
2022-11-15T06:06:48.694Z,13.00
2022-11-15T06:09:17.621Z,14.00
2022-11-15T06:11:46.141Z,12.00
2022-11-15T06:14:14.909Z,12.00
2022-11-15T06:16:43.722Z,8.67
2022-11-15T06:19:12.507Z,12.00
2022-11-15T06:21:41.312Z,11.00
2022-11-15T06:24:09.908Z,10.33
2022-11-15T06:26:38.571Z,15.00
2022-11-15T06:29:07.357Z,11.00
2022-11-15T06:31:36.452Z,11.00
2022-11-15T06:34:05.055Z,13.00
2022-11-15T06:36:36.288Z,13.33
2022-11-15T06:39:06.139Z,13.00
2022-11-15T06:41:37.960Z,17.00
2022-11-15T06:44:06.646Z,16.00
2022-11-15T06:46:35.435Z,15.00
2022-11-15T06:49:09.445Z,8.67
2022-11-15T06:51:38.543Z,13.00
2022-11-15T06:54:07.327Z,14.67
2022-11-15T06:56:35.912Z,13.00
2022-11-15T06:59:04.607Z,14.00
2022-11-15T07:01:33.333Z,12.67
2022-11-15T07:04:02.178Z,10.00
2022-11-15T07:06:30.758Z,12.50
2022-11-15T07:09:01.909Z,15.00
2022-11-15T07:11:30.594Z,11.00
2022-11-15T07:13:59.292Z,12.50
2022-11-15T07:16:27.961Z,14.00
2022-11-15T07:18:56.659Z,12.00
2022-11-15T07:21:27.718Z,13.50
2022-11-15T07:23:57.093Z,9.00
2022-11-15T07:26:25.677Z,13.00
2022-11-15T07:28:54.365Z,11.00
2022-11-15T07:31:23.871Z,12.00
2022-11-15T07:33:52.452Z,16.00
2022-11-15T07:36:21.243Z,12.00
2022-11-15T07:38:49.937Z,13.00
2022-11-15T07:41:18.513Z,9.00
2022-11-15T07:43:47.407Z,12.50
2022-11-15T07:46:15.991Z,13.00
2022-11-15T07:48:45.487Z,15.50
2022-11-15T07:51:15.894Z,12.00
2022-11-15T07:53:45.428Z,11.00
2022-11-15T07:56:14.221Z,10.00
2022-11-15T07:58:43.006Z,14.00
2022-11-15T08:01:12.036Z,11.50
2022-11-15T08:03:40.795Z,12.50
2022-11-15T08:06:09.583Z,12.00
2022-11-15T08:08:38.570Z,11.00
2022-11-15T08:11:07.256Z,11.00
2022-11-15T08:13:36.139Z,11.50
2022-11-15T08:16:06.769Z,12.00
2022-11-15T08:18:36.086Z,12.33
2022-11-15T08:21:05.491Z,11.33
2022-11-15T08:23:34.266Z,10.00
2022-11-15T08:26:04.751Z,9.50
2022-11-15T08:28:33.899Z,6.00
2022-11-15T08:31:02.996Z,11.00
2022-11-15T08:33:32.555Z,10.00
2022-11-15T08:36:02.426Z,12.00
2022-11-15T08:38:32.183Z,9.50
2022-11-15T08:41:05.784Z,11.50
2022-11-15T08:43:35.040Z,11.33
2022-11-15T08:46:03.724Z,11.67
2022-11-15T08:48:32.713Z,8.00
2022-11-15T08:51:01.807Z,8.50
2022-11-15T08:53:30.595Z,11.00
2022-11-15T08:55:59.492Z,11.50
2022-11-15T08:58:28.075Z,7.50
2022-11-15T09:00:56.759Z,12.00
2022-11-15T09:03:26.779Z,7.50
2022-11-15T09:05:57.180Z,8.00
2022-11-15T09:11:17.853Z,11.00
2022-11-15T09:13:46.403Z,11.00
2022-11-15T09:16:16.630Z,10.00
2022-11-15T09:18:45.236Z,9.50
2022-11-15T09:28:53.372Z,10.00
2022-11-15T09:31:22.408Z,13.33
2022-11-15T09:33:51.157Z,10.00
2022-11-15T09:36:19.842Z,11.00
2022-11-15T09:38:49.042Z,11.00
2022-11-15T09:41:26.635Z,9.00
2022-11-15T09:44:25.916Z,8.33
2022-11-15T09:47:23.503Z,9.67
2022-11-15T09:49:58.653Z,11.00
2022-11-15T09:52:27.225Z,10.00
2022-11-15T09:54:56.545Z,10.33
2022-11-15T09:57:45.711Z,9.00
2022-11-15T10:00:46.917Z,11.00
2022-11-15T10:03:22.646Z,12.50
2022-11-15T10:05:52.926Z,10.00
2022-11-15T10:08:30.712Z,7.00
2022-11-15T10:14:10.577Z,9.00
2022-11-15T10:17:22.793Z,8.00
2022-11-15T10:20:06.172Z,9.33
2022-11-15T10:22:56.215Z,10.00
2022-11-15T10:25:30.341Z,8.00
2022-11-15T10:28:17.347Z,11.00
2022-11-15T10:30:55.096Z,7.67
2022-11-15T10:33:28.342Z,8.00
2022-11-15T10:36:15.350Z,8.00
2022-11-15T10:38:50.706Z,8.00
2022-11-15T10:41:40.577Z,9.00
2022-11-15T10:44:18.281Z,10.00
2022-11-15T10:46:57.921Z,9.50
2022-11-15T10:49:31.741Z,8.00
2022-11-15T10:52:06.239Z,6.00
2022-11-15T10:54:44.748Z,10.00
2022-11-15T10:57:19.330Z,9.00
2022-11-15T10:59:53.970Z,9.00
2022-11-15T11:02:47.279Z,5.50
2022-11-15T11:05:39.919Z,11.00
2022-11-15T11:08:13.641Z,5.00
2022-11-15T11:11:02.503Z,8.00
2022-11-15T11:13:36.952Z,7.00
2022-11-15T11:16:23.950Z,10.00
2022-11-15T11:19:30.299Z,8.00
2022-11-15T11:22:01.546Z,8.00
2022-11-15T11:24:47.024Z,7.33
2022-11-15T11:27:30.869Z,6.00
2022-11-15T11:30:14.682Z,8.33
2022-11-15T11:33:07.871Z,10.00
2022-11-15T11:35:53.250Z,9.50
2022-11-15T11:38:39.956Z,6.33
2022-11-15T11:41:08.644Z,6.00
2022-11-15T11:43:58.531Z,4.00
2022-11-15T11:46:45.747Z,10.25
2022-11-15T11:49:23.547Z,8.33
2022-11-15T11:52:15.275Z,7.00
2022-11-15T11:55:04.133Z,7.00
2022-11-15T11:57:35.175Z,9.00
2022-11-15T12:00:18.724Z,6.50
2022-11-15T12:03:08.765Z,7.00
2022-11-15T12:05:51.098Z,7.00
2022-11-15T12:08:53.575Z,8.00
2022-11-15T12:11:24.007Z,7.00
2022-11-15T12:14:00.307Z,7.75
2022-11-15T12:16:33.444Z,7.00
2022-11-15T12:19:03.963Z,6.50
2022-11-15T12:21:47.737Z,5.00
2022-11-15T12:24:19.075Z,7.75
2022-11-15T12:26:52.329Z,5.00
2022-11-15T12:29:51.269Z,8.50
2022-11-15T12:32:36.158Z,7.00
2022-11-15T12:35:07.283Z,5.75
2022-11-15T12:37:44.465Z,7.00
2022-11-15T12:40:32.099Z,7.50
2022-11-15T12:43:08.193Z,7.00
2022-11-15T12:45:39.775Z,8.00
2022-11-15T12:48:16.896Z,6.50
2022-11-15T12:50:57.252Z,8.00
2022-11-15T12:53:25.840Z,5.00
2022-11-15T12:56:03.433Z,8.33
2022-11-15T12:58:47.585Z,13.00
2022-11-15T13:01:34.597Z,10.00
2022-11-15T13:04:21.416Z,13.00
2022-11-15T13:06:53.002Z,12.00
2022-11-15T13:09:33.220Z,12.00
2022-11-15T13:12:03.479Z,11.00
2022-11-15T13:14:45.133Z,8.50
2022-11-15T13:17:22.423Z,12.00
2022-11-15T13:20:01.043Z,10.00
2022-11-15T13:22:48.466Z,12.67
2022-11-15T13:25:36.945Z,12.00
2022-11-15T13:28:12.876Z,8.33
2022-11-15T13:30:56.820Z,9.50
2022-11-15T13:33:35.725Z,10.00
2022-11-15T13:36:24.603Z,10.00
2022-11-15T13:39:01.793Z,11.00
2022-11-15T13:41:32.751Z,8.50
2022-11-15T13:44:02.375Z,10.00
2022-11-15T13:46:34.747Z,10.00
2022-11-15T13:49:11.946Z,13.00
2022-11-15T13:51:50.005Z,7.50
2022-11-15T13:54:30.573Z,10.50
2022-11-15T13:57:11.644Z,9.00
2022-11-15T14:00:02.373Z,10.33
2022-11-15T14:02:36.079Z,7.50
2022-11-15T14:05:21.124Z,10.00
2022-11-15T14:07:59.444Z,10.50
2022-11-15T14:10:37.411Z,8.50
2022-11-15T14:13:11.482Z,8.75
2022-11-15T14:15:41.270Z,8.00
2022-11-15T14:18:58.490Z,6.00
2022-11-15T14:21:26.974Z,8.00
2022-11-15T14:24:21.675Z,7.00
2022-11-15T14:26:50.152Z,8.67
2022-11-15T14:29:31.125Z,8.00
2022-11-15T14:32:23.878Z,8.00
2022-11-15T14:35:02.868Z,10.00
2022-11-15T14:37:35.410Z,10.00
2022-11-15T14:40:06.373Z,8.50
2022-11-15T14:42:34.805Z,8.50
2022-11-15T14:45:03.387Z,9.50
2022-11-15T14:47:31.768Z,9.00
2022-11-15T14:50:00.047Z,9.67
2022-11-15T14:52:32.729Z,8.00
2022-11-15T14:55:03.480Z,7.00
2022-11-15T14:57:32.039Z,7.67
2022-11-15T15:00:00.236Z,9.00
2022-11-15T15:02:28.901Z,13.00
2022-11-15T15:04:57.119Z,13.00
2022-11-15T15:07:27.819Z,14.00
2022-11-15T15:10:11.352Z,23.50
2022-11-15T15:12:45.048Z,19.00
2022-11-15T15:15:18.547Z,21.50
2022-11-15T15:17:46.827Z,23.50
2022-11-15T15:20:15.727Z,28.50
2022-11-15T15:22:44.227Z,34.50
2022-11-15T15:25:32.134Z,40.50
2022-11-15T15:28:01.664Z,38.50
2022-11-15T15:30:31.868Z,42.00
2022-11-15T15:33:00.037Z,47.25
2022-11-15T15:35:33.201Z,46.00
2022-11-15T15:38:01.930Z,41.00
2022-11-15T15:40:32.528Z,39.50
2022-11-15T15:43:01.212Z,38.00
2022-11-15T15:45:30.874Z,36.50
2022-11-15T15:47:59.229Z,39.00
2022-11-15T15:50:33.548Z,36.00
2022-11-15T15:53:03.867Z,35.00
2022-11-15T15:55:32.965Z,36.00
2022-11-15T15:58:01.243Z,38.00
2022-11-15T16:00:29.720Z,37.00
2022-11-15T16:02:58.021Z,38.00
2022-11-15T16:05:26.481Z,38.00
2022-11-15T16:07:54.966Z,35.00
2022-11-15T16:10:23.449Z,33.00
2022-11-15T16:12:52.742Z,34.00
2022-11-15T16:15:22.953Z,34.00
2022-11-15T16:17:56.391Z,30.67
2022-11-15T16:20:36.646Z,23.50
2022-11-15T16:23:09.566Z,23.00
2022-11-15T16:25:49.765Z,25.00
2022-11-15T16:28:30.054Z,30.33
2022-11-15T16:31:04.969Z,19.50
2022-11-15T16:33:33.864Z,29.00
2022-11-15T16:36:03.352Z,27.00
2022-11-15T16:38:32.855Z,26.00
2022-11-15T16:41:01.439Z,18.00
2022-11-15T16:43:29.932Z,24.00
2022-11-15T16:45:58.409Z,21.00
2022-11-15T16:48:28.834Z,22.00
2022-11-15T16:51:00.594Z,18.00
2022-11-15T16:53:28.969Z,21.00
2022-11-15T16:55:57.699Z,20.00
2022-11-15T17:00:56.250Z,20.50
2022-11-15T17:03:25.463Z,19.67
2022-11-15T17:05:53.836Z,19.00
2022-11-15T17:08:22.939Z,21.00
2022-11-15T17:10:51.519Z,18.00
2022-11-15T17:13:19.795Z,20.50
2022-11-15T17:15:48.070Z,19.00
2022-11-15T17:18:16.453Z,18.00
2022-11-15T17:20:44.934Z,15.67
2022-11-15T17:23:14.969Z,18.00
2022-11-15T17:25:43.227Z,17.00
2022-11-15T17:28:11.605Z,15.00
2022-11-15T17:30:43.671Z,17.00
2022-11-15T17:33:11.948Z,15.00
2022-11-15T17:35:40.531Z,14.00
2022-11-15T17:38:08.913Z,18.00
2022-11-15T17:40:37.052Z,15.50
2022-11-15T17:43:06.919Z,15.00
2022-11-15T17:45:35.487Z,15.00
2022-11-15T17:48:04.068Z,16.00
2022-11-15T17:50:32.348Z,13.50
2022-11-15T17:53:00.834Z,17.00
2022-11-15T17:55:29.123Z,11.50
2022-11-15T17:57:57.484Z,17.00
2022-11-15T18:00:25.757Z,13.00
2022-11-15T18:02:54.067Z,14.50
2022-11-15T18:05:22.455Z,14.00
2022-11-15T18:07:50.904Z,13.50
2022-11-15T18:10:19.382Z,14.00
2022-11-15T18:12:47.905Z,14.00
2022-11-15T18:15:16.343Z,14.00
2022-11-15T18:17:44.620Z,15.00
2022-11-15T18:20:13.209Z,17.00
2022-11-15T18:22:41.479Z,13.50
2022-11-15T18:25:10.988Z,17.50
2022-11-15T18:27:39.378Z,11.00
2022-11-15T18:30:08.973Z,12.00
2022-11-15T18:32:37.148Z,15.00
2022-11-15T18:35:06.616Z,14.00
2022-11-15T18:37:35.094Z,15.00
2022-11-15T18:40:05.095Z,11.00
2022-11-15T18:42:33.327Z,13.00
2022-11-15T18:45:02.216Z,14.67
2022-11-15T18:47:31.931Z,13.00
2022-11-15T18:50:00.149Z,11.50
2022-11-15T18:52:28.690Z,14.00
2022-11-15T18:54:57.168Z,16.00
2022-11-15T18:57:25.752Z,13.00
2022-11-15T18:59:54.134Z,16.00
2022-11-15T19:02:22.510Z,13.50
2022-11-15T19:04:51.113Z,11.50
2022-11-15T19:07:19.412Z,15.00
2022-11-15T19:09:48.265Z,13.50
2022-11-15T19:12:16.646Z,15.00
2022-11-15T19:14:44.922Z,12.00
2022-11-15T19:17:13.313Z,13.00
2022-11-15T19:19:41.633Z,15.00
2022-11-15T19:22:09.960Z,14.00
2022-11-15T19:24:38.230Z,15.00
2022-11-15T19:27:06.512Z,14.50
2022-11-15T19:29:34.993Z,13.50
2022-11-15T19:32:04.297Z,14.00
2022-11-15T19:34:32.785Z,13.00
2022-11-15T19:37:01.258Z,14.00
2022-11-15T19:39:29.536Z,12.00
2022-11-15T19:41:57.816Z,14.00
2022-11-15T19:44:27.520Z,14.00
2022-11-15T19:46:55.799Z,13.50
2022-11-15T19:49:24.151Z,15.00
2022-11-15T19:51:52.462Z,16.00
2022-11-15T19:54:20.833Z,11.33
2022-11-15T19:56:49.315Z,12.00
2022-11-15T19:59:17.628Z,14.00
2022-11-15T20:01:46.176Z,15.00
2022-11-15T20:04:14.571Z,15.00
2022-11-15T20:06:43.472Z,12.50
2022-11-15T20:09:15.479Z,13.00
2022-11-15T20:11:44.506Z,15.00
2022-11-15T20:14:13.404Z,14.00
2022-11-15T20:16:42.189Z,13.50
2022-11-15T20:19:12.827Z,15.50
2022-11-15T20:21:41.307Z,5.75
2022-11-15T20:24:09.781Z,7.00
2022-11-15T20:26:39.184Z,10.00
2022-11-15T20:29:08.840Z,12.00
2022-11-15T20:31:37.287Z,14.00
2022-11-15T20:34:05.960Z,12.50
2022-11-15T20:36:34.170Z,13.50
2022-11-15T20:39:02.516Z,13.00
2022-11-15T20:41:31.302Z,15.00
2022-11-15T20:43:59.887Z,12.00
2022-11-15T20:46:28.266Z,15.00
2022-11-15T20:48:56.542Z,14.50
2022-11-15T20:51:24.820Z,13.00
2022-11-15T20:53:53.205Z,11.00
2022-11-15T20:56:22.293Z,13.00
2022-11-15T20:58:50.986Z,11.00
2022-11-15T21:01:25.023Z,12.00
2022-11-15T21:03:54.732Z,10.00
2022-11-15T21:06:24.594Z,11.67
2022-11-15T21:09:12.351Z,12.00
2022-11-15T21:12:00.100Z,13.50
2022-11-15T21:14:28.697Z,15.00
2022-11-15T21:16:56.855Z,11.00
2022-11-15T21:19:29.027Z,13.50
2022-11-15T21:22:01.694Z,12.50
2022-11-15T21:24:30.485Z,14.00
2022-11-15T21:26:59.372Z,14.00
2022-11-15T21:29:28.881Z,12.00
2022-11-15T21:31:57.164Z,12.00
2022-11-15T21:34:25.538Z,13.00
2022-11-15T21:36:54.019Z,14.00
2022-11-15T21:39:22.399Z,10.00
2022-11-15T21:41:50.673Z,12.00
2022-11-15T21:44:19.258Z,11.50
2022-11-15T21:46:47.635Z,8.67
2022-11-15T21:49:16.219Z,13.00
2022-11-15T21:51:44.602Z,14.00
2022-11-15T21:54:12.988Z,12.00
2022-11-15T21:56:43.508Z,11.00
2022-11-15T21:59:11.990Z,10.50
2022-11-15T22:01:59.013Z,11.50
2022-11-15T22:04:27.490Z,13.00
2022-11-15T22:06:55.995Z,10.00
2022-11-15T22:09:24.451Z,13.00
2022-11-15T22:11:52.835Z,8.67
2022-11-15T22:14:21.209Z,11.50
2022-11-15T22:16:49.534Z,11.00
2022-11-15T22:19:17.869Z,10.50
2022-11-15T22:21:46.205Z,10.00
2022-11-15T22:24:14.626Z,9.67
2022-11-15T22:26:43.107Z,12.00
2022-11-15T22:29:11.385Z,12.00
2022-11-15T22:31:39.780Z,13.00
2022-11-15T22:34:08.757Z,11.00
2022-11-15T22:36:58.548Z,13.00
2022-11-15T22:39:25.491Z,11.50
2022-11-15T22:41:54.687Z,11.00
2022-11-15T22:44:22.965Z,15.00
2022-11-15T22:46:51.236Z,13.00
2022-11-15T22:49:19.512Z,11.00
2022-11-15T22:51:47.896Z,12.67
2022-11-15T22:54:16.170Z,12.50
2022-11-15T22:56:44.449Z,10.00
2022-11-15T22:59:13.338Z,13.00
2022-11-15T23:01:41.511Z,14.50
2022-11-15T23:04:09.801Z,8.00
2022-11-15T23:06:38.172Z,13.00
2022-11-15T23:09:06.446Z,14.67
2022-11-15T23:11:53.364Z,12.00
2022-11-15T23:14:21.636Z,14.50
2022-11-15T23:16:50.018Z,13.00
2022-11-15T23:19:18.350Z,10.50
2022-11-15T23:22:06.028Z,12.00
2022-11-15T23:24:34.417Z,11.33
2022-11-15T23:27:06.496Z,12.00
2022-11-15T23:29:55.028Z,15.00
2022-11-15T23:32:42.247Z,12.00
2022-11-15T23:35:10.524Z,12.00
2022-11-15T23:37:41.054Z,13.00
2022-11-15T23:40:10.249Z,14.00
2022-11-15T23:42:38.430Z,13.50
2022-11-15T23:45:07.729Z,12.00
2022-11-15T23:47:35.904Z,15.00
2022-11-15T23:50:04.702Z,12.00
2022-11-15T23:52:33.019Z,12.50
2022-11-15T23:55:01.459Z,12.00
2022-11-15T23:57:29.842Z,14.00
